SLET/SRZ METAR and TAF weather

Enter ICAO airport designator
Station Type Date Time Source
SLET METAR 2019/06/27 10:00 UTC NOAA

SLET 271000Z 32010KT 9999 SCT008 BKN017 OVC070 14/12 Q1011


Station Type Date Time Source
SLET Decoded METAR 2019/06/27 10:00 UTC NOAA

Santa Cruz / El Trompillo, Bolivia (SLET) 17-48S 063-11W 414M
Jun 27, 2019 - 06:00 AM EDT / 2019.06.27 1000 UTC
Wind: from the NW (320 degrees) at 12 MPH (10 KT):0
Visibility: greater than 7 mile(s):0
Sky conditions: overcast
Temperature: 57 F (14 C)
Dew Point: 53 F (12 C)
Relative Humidity: 87%
Pressure (altimeter): 29.85 in. Hg (1011 hPa)
ob: SLET 271000Z 32010KT 9999 SCT008 BKN017 OVC070 14/12 Q1011
cycle: 10

Station Type Date Time Source
SLET TAF 2019/06/27 06:56 UTC NOAA

TAF SLET 270450Z 2706/2806 33007KT 9999 SCT025 BKN070 TX26/2719Z TN12/2711Z
BECMG 2710/2713 33015KT
BECMG 2721/2723 33008KT NSC

Example: see airport list